LFOB/BVA METAR and TAF weather

Enter ICAO airport designator
Station Type Date Time Source
LFOB METAR 2019/08/22 04:30 UTC NOAA

LFOB 220430Z AUTO 31004KT CAVOK 08/08 Q1025 NOSIG


Station Type Date Time Source
LFOB Decoded METAR 2019/08/22 04:30 UTC NOAA

Station name not available
Aug 22, 2019 - 12:30 AM EDT / 2019.08.22 0430 UTC
Wind: from the NW (310 degrees) at 5 MPH (4 KT):0
Visibility: greater than 7 mile(s):0
Temperature: 46 F (8 C)
Dew Point: 46 F (8 C)
Relative Humidity: 100%
Pressure (altimeter): 30.27 in. Hg (1025 hPa)
ob: LFOB 220430Z AUTO 31004KT CAVOK 08/08 Q1025 NOSIG
cycle: 4

Station Type Date Time Source
LFOB TAF 2019/08/21 18:21 UTC NOAA

TAF TAF LFOB 211700Z 2118/2218 VRB02KT CAVOK

Example: see airport list